Time;durP1;ratioP1;P1;durP2;ratioP2;P2;SDS_P1;SDS_P2;PMS_P1;PMS_P2;Temp;Humidity;BMP_temperature;BMP_pressure;BME280_temperature;BME280_humidity;BME280_pressure;Samples;Min_cycle;Max_cycle;Signal;HPM_P1;HPM_P2
2023/04/21 00:03:50;;;;;;;41.88;27.05;;;;;;;8.84;73.06;100367.78;10173023;29;20072;-79
2023/04/21 00:08:53;;;;;;;37.85;26.13;;;;;;;8.85;73.15;100360.63;10168730;29;20048;-79
2023/04/21 00:13:57;;;;;;;42.03;28.10;;;;;;;8.85;73.03;100374.00;10161261;29;20060;-79
2023/04/21 00:19:01;;;;;;;43.85;27.10;;;;;;;8.74;73.97;100366.75;10165802;29;20048;-80
2023/04/21 00:24:04;;;;;;;43.70;27.98;;;;;;;8.83;73.69;100362.53;10163080;29;20049;-74
2023/04/21 00:29:09;;;;;;;42.78;28.08;;;;;;;8.89;73.39;100359.44;10167324;29;20159;-78
2023/04/21 00:34:12;;;;;;;43.25;28.85;;;;;;;8.95;73.34;100353.59;10158790;29;20051;-78
2023/04/21 00:39:14;;;;;;;40.85;27.52;;;;;;;8.95;73.35;100348.25;10158144;29;20037;-80
2023/04/21 00:44:19;;;;;;;43.20;29.63;;;;;;;9.00;73.21;100355.94;10160661;29;20044;-77
2023/04/21 00:49:24;;;;;;;43.58;27.60;;;;;;;8.97;73.06;100358.88;10163990;29;20049;-78
2023/04/21 00:54:27;;;;;;;38.20;26.58;;;;;;;8.96;72.96;100349.94;10149835;29;20068;-81
2023/04/21 00:59:31;;;;;;;39.67;26.35;;;;;;;8.89;72.98;100346.03;10162720;29;20104;-79
2023/04/21 01:04:38;;;;;;;44.78;28.65;;;;;;;8.88;73.80;100343.47;10159112;29;20040;-80
2023/04/21 01:09:41;;;;;;;51.60;29.80;;;;;;;9.02;73.08;100345.94;10160167;29;20157;-80
2023/04/21 01:14:45;;;;;;;46.40;28.85;;;;;;;9.14;72.16;100342.38;10181619;29;20045;-74
2023/04/21 01:19:50;;;;;;;45.35;27.63;;;;;;;9.13;72.23;100343.31;10175314;29;20050;-79
2023/04/21 01:24:55;;;;;;;41.90;26.55;;;;;;;9.15;72.36;100346.75;10163280;29;20392;-80
2023/04/21 01:29:58;;;;;;;41.63;27.13;;;;;;;9.25;71.50;100352.28;10153748;29;20087;-78
2023/04/21 01:35:02;;;;;;;42.58;26.60;;;;;;;9.28;71.35;100344.84;10150005;29;20051;-76
2023/04/21 01:40:09;;;;;;;40.13;25.83;;;;;;;9.19;71.30;100347.38;10157190;29;20419;-80
2023/04/21 01:45:12;;;;;;;39.70;26.88;;;;;;;9.33;71.00;100340.97;10133221;29;20636;-80
2023/04/21 01:50:15;;;;;;;41.20;26.52;;;;;;;9.23;71.11;100338.97;10153253;29;20100;-80
2023/04/21 01:55:20;;;;;;;40.33;27.48;;;;;;;9.18;70.88;100341.16;10161804;29;20048;-78
2023/04/21 02:00:23;;;;;;;43.88;27.23;;;;;;;9.21;71.04;100334.69;10157162;29;20060;-75
2023/04/21 02:05:26;;;;;;;39.55;26.70;;;;;;;9.12;71.24;100343.44;10158182;29;20040;-80
2023/04/21 02:10:32;;;;;;;41.42;25.98;;;;;;;9.09;71.38;100341.00;10163250;29;20044;-80
2023/04/21 02:15:34;;;;;;;44.28;27.45;;;;;;;8.99;71.48;100328.28;10149125;29;20178;-78
2023/04/21 02:20:38;;;;;;;41.58;27.92;;;;;;;8.83;71.85;100330.41;10160417;29;20189;-80
2023/04/21 02:25:42;;;;;;;39.38;27.70;;;;;;;9.01;71.77;100325.50;10154796;29;20055;-78
2023/04/21 02:30:47;;;;;;;41.45;28.02;;;;;;;8.98;71.72;100323.06;10153819;29;20511;-81
2023/04/21 02:35:50;;;;;;;42.05;27.23;;;;;;;8.85;71.64;100323.13;10164822;29;20044;-79
2023/04/21 02:40:54;;;;;;;46.50;28.80;;;;;;;8.79;72.21;100323.56;10147118;29;20088;-81
2023/04/21 02:45:57;;;;;;;46.13;28.63;;;;;;;8.80;71.77;100319.91;10165765;29;20048;-81
2023/04/21 02:51:00;;;;;;;46.97;29.58;;;;;;;8.75;72.19;100338.16;10158960;29;20043;-80
2023/04/21 02:56:04;;;;;;;40.53;28.23;;;;;;;8.74;71.90;100341.81;10151734;29;20048;-80
2023/04/21 03:01:07;;;;;;;42.95;27.73;;;;;;;8.68;71.83;100347.63;10159069;29;20056;-79
2023/04/21 03:06:10;;;;;;;44.50;27.70;;;;;;;8.59;71.96;100341.97;10182025;29;20036;-78
2023/04/21 03:11:15;;;;;;;40.60;26.08;;;;;;;8.47;72.15;100333.97;10181524;23;20048;-82
2023/04/21 03:16:18;;;;;;;45.85;28.98;;;;;;;8.39;72.41;100338.06;10173448;29;20135;-81
2023/04/21 03:21:21;;;;;;;45.20;29.48;;;;;;;8.33;72.56;100346.50;10180475;29;20503;-82
2023/04/21 03:26:25;;;;;;;46.13;28.55;;;;;;;8.28;72.76;100337.97;10174778;29;20055;-82
2023/04/21 03:31:28;;;;;;;45.10;27.42;;;;;;;8.24;72.94;100336.47;10188728;29;20074;-81
2023/04/21 03:36:31;;;;;;;46.05;29.00;;;;;;;8.20;72.82;100347.50;10176255;29;20047;-81
2023/04/21 03:41:36;;;;;;;42.65;28.10;;;;;;;8.13;73.09;100349.78;10186727;29;20134;-82
2023/04/21 03:46:39;;;;;;;41.25;28.08;;;;;;;8.14;73.14;100349.66;10188140;29;20055;-82
2023/04/21 03:51:42;;;;;;;43.22;27.52;;;;;;;8.13;73.16;100350.63;10170521;29;20052;-82
2023/04/21 03:56:46;;;;;;;41.95;27.92;;;;;;;8.10;73.27;100345.50;10185097;29;20079;-82
2023/04/21 04:01:49;;;;;;;41.35;26.63;;;;;;;8.10;73.53;100344.66;10205455;29;20071;-82
2023/04/21 04:06:52;;;;;;;43.97;27.55;;;;;;;8.11;73.52;100344.50;10188067;29;20096;-82
2023/04/21 04:11:56;;;;;;;38.10;27.08;;;;;;;8.20;73.83;100345.72;10181408;29;20109;-82
2023/04/21 04:16:59;;;;;;;40.38;27.73;;;;;;;8.25;73.64;100337.31;10185581;29;20410;-82
2023/04/21 04:22:02;;;;;;;41.63;27.70;;;;;;;8.34;73.57;100334.00;10203516;29;20043;-82
2023/04/21 04:27:06;;;;;;;41.67;26.70;;;;;;;8.40;73.58;100334.41;10189919;29;20056;-82
2023/04/21 04:32:09;;;;;;;37.05;27.15;;;;;;;8.50;73.47;100333.75;10184606;29;20113;-82
2023/04/21 04:37:13;;;;;;;41.10;27.17;;;;;;;8.53;73.58;100333.53;10186696;29;20063;-81
2023/04/21 04:42:19;;;;;;;38.72;25.60;;;;;;;8.56;73.00;100330.66;10172724;29;20060;-82
2023/04/21 04:47:21;;;;;;;38.35;24.50;;;;;;;8.52;72.86;100334.50;10187157;29;20534;-82
2023/04/21 04:52:25;;;;;;;40.78;27.58;;;;;;;8.54;73.08;100338.78;10185343;29;20043;-82
2023/04/21 04:57:30;;;;;;;46.65;28.40;;;;;;;8.59;72.81;100351.84;10190452;29;20150;-82
2023/04/21 05:02:33;;;;;;;39.10;25.85;;;;;;;8.56;72.70;100344.88;10202793;29;20044;-81
2023/04/21 05:07:36;;;;;;;42.25;25.05;;;;;;;8.59;72.59;100343.81;10204725;29;20085;-80
2023/04/21 05:12:41;;;;;;;38.50;25.75;;;;;;;8.68;72.53;100352.97;10191161;29;20071;-81
2023/04/21 05:17:43;;;;;;;38.13;25.25;;;;;;;8.82;72.42;100360.84;10205788;29;20666;-82
2023/04/21 05:22:46;;;;;;;41.47;26.48;;;;;;;8.96;71.95;100357.97;10188670;29;20056;-82
2023/04/21 05:27:51;;;;;;;39.03;26.35;;;;;;;9.10;71.29;100362.31;10188065;29;20080;-83
2023/04/21 05:32:53;;;;;;;41.35;25.92;;;;;;;9.20;70.96;100363.34;10200533;29;20047;-82
2023/04/21 05:37:56;;;;;;;40.03;25.92;;;;;;;9.40;70.26;100372.53;10200308;29;20107;-83
2023/04/21 05:43:01;;;;;;;34.08;24.30;;;;;;;9.70;69.38;100373.84;10198840;29;20050;-83
2023/04/21 05:48:04;;;;;;;31.95;22.85;;;;;;;9.82;68.70;100369.34;10175232;29;20044;-82
2023/04/21 05:53:07;;;;;;;34.42;23.48;;;;;;;10.06;68.13;100370.13;10199386;29;20570;-83
2023/04/21 05:58:11;;;;;;;32.92;22.27;;;;;;;10.11;67.53;100367.94;10184775;29;20059;-83
2023/04/21 06:03:14;;;;;;;33.38;22.15;;;;;;;10.17;67.43;100369.28;10195316;29;20044;-82
2023/04/21 06:08:17;;;;;;;35.35;22.15;;;;;;;10.45;66.60;100370.63;10193570;29;20499;-81
2023/04/21 06:13:21;;;;;;;32.53;21.88;;;;;;;10.69;66.03;100364.22;10201763;29;20407;-81
2023/04/21 06:18:26;;;;;;;31.88;21.85;;;;;;;11.01;65.35;100361.56;10197167;29;20052;-81
2023/04/21 06:23:29;;;;;;;30.95;20.75;;;;;;;11.25;63.76;100366.75;10166396;29;21234;-81
2023/04/21 06:28:35;;;;;;;33.58;20.23;;;;;;;11.65;62.71;100364.19;10152053;29;20126;-81
2023/04/21 06:33:38;;;;;;;14.75;9.52;;;;;;;11.91;62.34;100366.50;10140263;29;20082;-82
2023/04/21 06:38:42;;;;;;;22.77;13.75;;;;;;;12.05;61.29;100360.75;10146536;29;20058;-82
2023/04/21 06:43:46;;;;;;;22.38;15.82;;;;;;;12.37;61.50;100357.09;10142754;29;20063;-82
2023/04/21 06:48:49;;;;;;;26.52;15.85;;;;;;;12.72;60.64;100344.97;10158888;29;20489;-82
2023/04/21 06:53:52;;;;;;;25.20;17.52;;;;;;;12.93;60.04;100352.94;10164857;29;20081;-82
2023/04/21 06:58:56;;;;;;;26.83;17.45;;;;;;;13.30;59.02;100352.22;10187398;29;20081;-81
2023/04/21 07:03:59;;;;;;;23.27;15.38;;;;;;;13.36;57.68;100351.69;10180627;29;20062;-81
2023/04/21 07:09:02;;;;;;;25.45;15.82;;;;;;;13.38;56.97;100350.56;10154104;29;20043;-82
2023/04/21 07:14:07;;;;;;;26.42;15.18;;;;;;;13.75;56.33;100340.84;10171804;29;20048;-81
2023/04/21 07:19:10;;;;;;;21.20;14.20;;;;;;;13.79;56.38;100340.41;10165244;29;20115;-82
2023/04/21 07:24:13;;;;;;;21.05;13.63;;;;;;;13.53;55.45;100340.19;10162997;29;20091;-81
2023/04/21 07:29:17;;;;;;;17.20;12.45;;;;;;;13.88;55.19;100333.28;10161741;29;20498;-81
2023/04/21 07:34:20;;;;;;;20.25;13.93;;;;;;;13.24;56.17;100341.03;10155303;29;20126;-82
2023/04/21 07:39:23;;;;;;;23.92;13.38;;;;;;;13.05;56.29;100324.84;10163064;29;20048;-81
2023/04/21 07:44:28;;;;;;;21.85;13.15;;;;;;;13.06;56.81;100331.97;10153392;29;20048;-81
2023/04/21 07:49:30;;;;;;;22.63;13.35;;;;;;;12.92;57.00;100343.16;10156934;29;20122;-81
2023/04/21 07:54:33;;;;;;;24.02;13.80;;;;;;;13.26;56.09;100341.72;10160963;29;20607;-81
2023/04/21 07:59:38;;;;;;;21.13;12.43;;;;;;;13.70;55.00;100341.28;10156620;29;20051;-81
2023/04/21 08:04:40;;;;;;;23.98;13.38;;;;;;;14.35;53.73;100325.97;10171415;29;20060;-81
2023/04/21 08:09:43;;;;;;;22.73;12.98;;;;;;;14.57;52.83;100322.03;10156165;29;20062;-81
2023/04/21 08:14:48;;;;;;;21.98;12.60;;;;;;;14.76;53.09;100318.34;10162395;29;20130;-82
2023/04/21 08:19:51;;;;;;;21.25;12.40;;;;;;;14.85;51.85;100315.72;10149120;29;20124;-82
2023/04/21 08:24:54;;;;;;;21.23;12.63;;;;;;;14.94;52.43;100317.50;10162525;29;20186;-82
2023/04/21 08:29:59;;;;;;;17.30;11.50;;;;;;;14.56;52.75;100327.56;10154809;29;20059;-82
2023/04/21 08:35:01;;;;;;;16.25;10.52;;;;;;;15.67;51.01;100320.00;10153756;29;20059;-82
2023/04/21 08:40:06;;;;;;;19.25;11.32;;;;;;;16.52;48.32;100315.53;10149904;29;20188;-82
2023/04/21 08:45:11;;;;;;;20.92;11.13;;;;;;;16.94;47.51;100311.88;10158030;29;20043;-82
2023/04/21 08:50:14;;;;;;;21.50;11.57;;;;;;;15.38;49.50;100313.00;10171979;29;20599;-82
2023/04/21 08:55:18;;;;;;;15.63;11.25;;;;;;;15.30;50.67;100306.66;10167018;29;20040;-82
2023/04/21 09:00:22;;;;;;;17.45;11.65;;;;;;;15.50;50.68;100313.63;10168449;29;20055;-83
2023/04/21 09:05:27;;;;;;;19.42;12.18;;;;;;;16.42;49.30;100298.53;10154281;29;20048;-82
2023/04/21 09:10:30;;;;;;;15.65;11.30;;;;;;;16.42;47.68;100290.41;10148570;29;20060;-82
2023/04/21 09:15:40;;;;;;;18.30;11.07;;;;;;;16.98;47.41;100294.25;10163299;29;20119;-82
2023/04/21 09:20:44;;;;;;;16.23;10.20;;;;;;;17.97;45.57;100270.59;10150576;29;20075;-82
2023/04/21 09:25:47;;;;;;;19.40;10.70;;;;;;;18.51;44.42;100275.25;10149352;29;20126;-82
2023/04/21 09:30:55;;;;;;;16.13;10.18;;;;;;;18.48;44.12;100276.44;10148408;29;20119;-82
2023/04/21 09:36:01;;;;;;;18.55;10.13;;;;;;;18.33;43.92;100270.09;10154858;29;20056;-82
2023/04/21 09:41:04;;;;;;;20.65;10.70;;;;;;;18.68;43.64;100271.41;10152242;29;20044;-82
2023/04/21 09:46:11;;;;;;;17.02;10.75;;;;;;;18.33;44.19;100264.66;10156802;29;20107;-82
2023/04/21 09:51:15;;;;;;;18.67;10.45;;;;;;;18.60;43.75;100265.19;10155447;29;20051;-82
2023/04/21 09:56:24;;;;;;;15.77;9.45;;;;;;;19.00;42.90;100259.47;10147897;29;21523;-81
2023/04/21 10:01:30;;;;;;;14.15;8.88;;;;;;;18.90;42.84;100255.31;10167110;29;20139;-81
2023/04/21 10:06:35;;;;;;;13.75;8.68;;;;;;;19.39;42.01;100246.69;10157383;29;20578;-82
2023/04/21 10:11:38;;;;;;;17.67;9.02;;;;;;;19.47;41.36;100241.16;10161442;29;20063;-82
2023/04/21 10:16:42;;;;;;;14.10;8.63;;;;;;;19.23;41.81;100251.28;10164228;29;20475;-82
2023/04/21 10:21:45;;;;;;;12.77;8.98;;;;;;;19.98;40.95;100238.56;10147473;29;20066;-82
2023/04/21 10:26:50;;;;;;;15.90;8.93;;;;;;;20.63;39.94;100212.31;10152213;29;20051;-82
2023/04/21 10:31:58;;;;;;;11.52;7.22;;;;;;;20.53;39.51;100215.34;10146635;29;20127;-82
2023/04/21 10:37:14;;;;;;;13.20;7.85;;;;;;;20.72;38.86;100213.84;10146751;29;20045;-81
2023/04/21 10:42:24;;;;;;;11.82;7.28;;;;;;;21.21;38.19;100207.59;10157470;29;20052;-82
2023/04/21 10:47:30;;;;;;;10.10;7.53;;;;;;;20.92;38.87;100203.13;10164077;29;20062;-81
2023/04/21 10:52:33;;;;;;;9.80;6.40;;;;;;;20.90;38.47;100190.69;10150147;29;20044;-82
2023/04/21 10:57:36;;;;;;;17.15;6.95;;;;;;;21.46;37.80;100174.34;10156215;29;20043;-83
2023/04/21 11:02:42;;;;;;;12.05;6.97;;;;;;;21.99;36.89;100176.53;10149004;29;20083;-82
2023/04/21 11:07:46;;;;;;;11.57;6.50;;;;;;;22.75;35.96;100159.91;10163887;29;20080;-83
2023/04/21 11:12:49;;;;;;;13.23;7.22;;;;;;;23.07;34.87;100158.22;10152460;29;20051;-83
2023/04/21 11:17:54;;;;;;;14.20;7.10;;;;;;;23.62;33.82;100146.97;10146066;29;20071;-83
2023/04/21 11:22:57;;;;;;;11.13;5.72;;;;;;;24.29;32.90;100140.09;10146462;29;20056;-82
2023/04/21 11:28:00;;;;;;;13.88;6.13;;;;;;;23.99;33.06;100139.03;10160049;29;20047;-83
2023/04/21 11:33:04;;;;;;;11.35;6.15;;;;;;;24.25;32.78;100125.16;10133869;29;20131;-83
2023/04/21 11:38:07;;;;;;;10.93;5.90;;;;;;;23.60;33.02;100125.22;10150036;29;20055;-83
2023/04/21 11:43:10;;;;;;;14.35;6.00;;;;;;;23.06;34.78;100115.41;10159361;29;20073;-78
2023/04/21 11:48:15;;;;;;;12.68;5.80;;;;;;;24.02;33.23;100103.75;10151346;29;20176;-79
2023/04/21 11:53:19;;;;;;;8.45;4.97;;;;;;;21.90;34.39;100102.06;10162694;29;20539;-78
2023/04/21 11:58:22;;;;;;;7.78;5.00;;;;;;;22.62;34.42;100102.41;10166289;29;20052;-79
2023/04/21 12:03:26;;;;;;;6.65;4.18;;;;;;;23.56;31.81;100093.84;10171142;29;20119;-79
2023/04/21 12:08:29;;;;;;;9.52;3.88;;;;;;;22.49;33.70;100097.75;10158561;29;20059;-78
2023/04/21 12:13:32;;;;;;;13.15;3.78;;;;;;;22.47;32.56;100089.78;10168437;29;20074;-78
2023/04/21 12:18:37;;;;;;;7.82;3.35;;;;;;;23.30;30.73;100075.56;10175233;29;20112;-81
2023/04/21 12:23:40;;;;;;;7.30;3.17;;;;;;;23.39;31.16;100070.69;10158488;29;20059;-79
2023/04/21 12:28:43;;;;;;;10.52;4.63;;;;;;;24.19;30.01;100054.72;10150386;29;21171;-78
2023/04/21 12:33:47;;;;;;;6.93;3.72;;;;;;;23.64;30.27;100054.34;10161665;29;20086;-78
2023/04/21 12:38:50;;;;;;;10.13;4.38;;;;;;;22.96;31.91;100054.78;10171949;29;20072;-79
2023/04/21 12:43:52;;;;;;;11.98;4.35;;;;;;;23.34;31.91;100035.75;10186588;29;20043;-79
2023/04/21 12:48:57;;;;;;;9.65;4.07;;;;;;;24.07;31.39;100034.50;10194744;29;20715;-82
2023/04/21 12:53:59;;;;;;;7.68;3.85;;;;;;;24.66;30.24;100035.97;10179238;29;20126;-81
2023/04/21 12:59:03;;;;;;;10.73;3.92;;;;;;;22.45;32.65;100030.84;10156810;29;20099;-79
2023/04/21 13:04:07;;;;;;;7.15;3.55;;;;;;;22.41;32.89;100029.56;10153715;29;20420;-81
2023/04/21 13:09:11;;;;;;;9.13;4.32;;;;;;;23.41;31.22;100017.34;10150360;29;20048;-78
2023/04/21 13:14:14;;;;;;;14.32;3.67;;;;;;;23.88;30.51;100012.47;10158703;29;20051;-82
2023/04/21 13:19:19;;;;;;;6.60;3.47;;;;;;;24.48;29.58;100013.97;10150829;29;20165;-78
2023/04/21 13:24:22;;;;;;;8.27;3.20;;;;;;;24.09;28.68;100008.53;10156512;29;20847;-80
2023/04/21 13:29:28;;;;;;;5.45;2.65;;;;;;;23.26;29.64;100002.22;10162193;29;20134;-78
2023/04/21 13:34:33;;;;;;;7.63;2.92;;;;;;;23.37;29.47;99999.69;10162830;29;20148;-82
2023/04/21 13:39:36;;;;;;;7.00;3.75;;;;;;;22.72;30.01;99996.06;10157212;29;20138;-82
2023/04/21 13:44:39;;;;;;;12.95;4.10;;;;;;;22.17;32.76;99981.78;10155625;29;20457;-82
2023/04/21 13:49:43;;;;;;;9.38;3.53;;;;;;;21.75;33.11;99973.75;10147073;29;21368;-82
2023/04/21 13:54:46;;;;;;;8.18;4.00;;;;;;;22.31;31.61;99980.72;10160915;29;20062;-81
2023/04/21 13:59:50;;;;;;;8.38;3.00;;;;;;;23.08;30.27;99972.78;10158148;29;20047;-81
2023/04/21 14:04:54;;;;;;;6.95;3.78;;;;;;;22.29;32.14;99953.56;10158330;29;20188;-81
2023/04/21 14:09:57;;;;;;;7.03;3.97;;;;;;;22.02;31.60;99947.28;10160546;29;20476;-81
2023/04/21 14:15:00;;;;;;;7.55;3.60;;;;;;;22.21;32.23;99947.47;10148800;29;20739;-82
2023/04/21 14:20:08;;;;;;;6.47;3.63;;;;;;;22.61;31.20;99945.56;10156666;29;20515;-82
2023/04/21 14:25:11;;;;;;;5.88;3.53;;;;;;;21.56;33.17;99925.34;10157181;29;20051;-82
2023/04/21 14:30:14;;;;;;;9.63;4.10;;;;;;;21.37;32.96;99927.81;10154457;29;20064;-81
2023/04/21 14:35:19;;;;;;;9.15;3.97;;;;;;;21.31;33.75;99917.72;10136017;29;20061;-82
2023/04/21 14:40:21;;;;;;;13.70;3.65;;;;;;;22.42;32.71;99919.88;10168704;29;20055;-82
2023/04/21 14:45:24;;;;;;;7.05;3.80;;;;;;;21.73;33.52;99903.91;10192301;29;20040;-81
2023/04/21 14:50:28;;;;;;;11.35;3.70;;;;;;;21.86;33.27;99913.00;10174134;29;20078;-83
2023/04/21 14:55:31;;;;;;;4.40;3.08;;;;;;;20.67;32.17;99915.31;10140965;29;20052;-82
2023/04/21 15:00:35;;;;;;;3.95;3.17;;;;;;;20.79;32.73;99914.53;10148914;29;20795;-82
2023/04/21 15:05:39;;;;;;;6.55;3.78;;;;;;;20.39;33.33;99904.47;10147485;29;20116;-82
2023/04/21 15:10:42;;;;;;;5.80;3.60;;;;;;;21.69;31.13;99887.06;10153641;29;20170;-83
2023/04/21 15:15:45;;;;;;;5.03;3.30;;;;;;;21.82;31.58;99899.94;10156432;29;20648;-83
2023/04/21 15:20:50;;;;;;;6.63;3.67;;;;;;;22.58;31.45;99890.41;10153140;29;20048;-83
2023/04/21 15:25:52;;;;;;;6.60;3.58;;;;;;;23.54;30.71;99884.06;10165465;29;20058;-83
2023/04/21 15:30:55;;;;;;;8.70;4.07;;;;;;;22.22;31.32;99875.31;10153322;29;20051;-83
2023/04/21 15:35:59;;;;;;;5.05;3.50;;;;;;;21.52;33.07;99872.97;10168063;29;20075;-82
2023/04/21 15:41:02;;;;;;;11.65;3.85;;;;;;;21.02;33.36;99861.50;10156061;29;20135;-82
2023/04/21 15:46:11;;;;;;;6.20;3.47;;;;;;;21.61;32.50;99854.47;10187681;29;20087;-82
2023/04/21 15:51:16;;;;;;;6.13;3.83;;;;;;;20.70;34.17;99865.78;10152754;29;20071;-82
2023/04/21 15:56:19;;;;;;;7.15;4.10;;;;;;;20.95;34.49;99858.78;10150693;29;20083;-82
2023/04/21 16:01:22;;;;;;;6.50;4.30;;;;;;;21.19;33.85;99854.63;10152415;29;20049;-83
2023/04/21 16:06:29;;;;;;;6.57;4.43;;;;;;;21.21;34.30;99851.72;10151476;29;20213;-83
2023/04/21 16:11:33;;;;;;;7.38;4.38;;;;;;;21.88;33.93;99850.72;10163922;29;20047;-83
2023/04/21 16:16:36;;;;;;;4.90;4.32;;;;;;;21.36;34.05;99843.31;10160363;29;20056;-83
2023/04/21 16:21:41;;;;;;;8.13;4.43;;;;;;;21.01;34.04;99841.56;10151408;29;20059;-83
2023/04/21 16:26:44;;;;;;;8.63;4.35;;;;;;;20.78;34.72;99838.31;10168166;29;20055;-83
2023/04/21 16:31:47;;;;;;;5.95;4.22;;;;;;;20.52;35.37;99828.16;10156880;29;20048;-82
2023/04/21 16:36:51;;;;;;;5.10;4.28;;;;;;;19.80;35.73;99829.34;10179854;29;20044;-82
2023/04/21 16:41:54;;;;;;;8.00;4.30;;;;;;;19.79;35.86;99824.94;10154800;29;20071;-82
2023/04/21 16:46:57;;;;;;;6.97;4.43;;;;;;;20.52;35.03;99817.25;10155222;29;20107;-82
2023/04/21 16:52:01;;;;;;;7.10;4.63;;;;;;;19.87;36.20;99805.72;10149814;29;20048;-83
2023/04/21 16:57:05;;;;;;;7.82;4.38;;;;;;;19.45;37.02;99802.03;10154016;29;20052;-83
2023/04/21 17:02:08;;;;;;;8.23;4.30;;;;;;;18.90;37.24;99800.88;10147018;29;20532;-82
2023/04/21 17:07:12;;;;;;;5.38;4.40;;;;;;;18.84;37.84;99817.94;10147859;29;20120;-83
2023/04/21 17:12:15;;;;;;;4.93;3.88;;;;;;;19.30;37.18;99806.69;10158992;29;20095;-83
2023/04/21 17:17:18;;;;;;;9.07;4.50;;;;;;;19.42;36.65;99802.44;10158710;29;20130;-83
2023/04/21 17:22:23;;;;;;;6.68;4.10;;;;;;;19.38;36.81;99801.94;10165351;29;20119;-82
2023/04/21 17:27:25;;;;;;;8.27;4.10;;;;;;;19.66;36.63;99791.13;10147286;29;20047;-82
2023/04/21 17:32:28;;;;;;;6.93;4.20;;;;;;;19.28;36.99;99797.88;10152778;29;20060;-82
2023/04/21 17:37:36;;;;;;;7.00;4.40;;;;;;;19.17;37.36;99799.22;10161746;29;20056;-83
2023/04/21 17:42:40;;;;;;;6.22;3.53;;;;;;;19.11;37.58;99789.97;10152049;29;20051;-83
2023/04/21 17:47:43;;;;;;;9.35;3.80;;;;;;;18.88;37.84;99783.88;10155203;29;20871;-83
2023/04/21 17:52:48;;;;;;;8.65;4.28;;;;;;;18.50;38.19;99786.78;10150744;29;20134;-83
2023/04/21 17:57:51;;;;;;;8.63;3.97;;;;;;;18.00;38.62;99782.97;10151956;29;20423;-83
2023/04/21 18:02:53;;;;;;;10.23;4.18;;;;;;;;;;10151334;29;20174;-83
2023/04/21 18:07:59;;;;;;;11.55;3.83;;;;;;;17.99;38.77;99774.00;10150089;29;20040;-81
2023/04/21 18:13:02;;;;;;;5.30;3.40;;;;;;;18.03;39.06;99779.88;10131808;29;20192;-82
2023/04/21 18:18:05;;;;;;;7.55;4.07;;;;;;;17.67;39.15;99781.44;10151878;29;21180;-82
2023/04/21 18:23:09;;;;;;;7.57;4.32;;;;;;;17.35;39.46;99779.00;10164947;29;20064;-83
2023/04/21 18:28:13;;;;;;;6.32;4.53;;;;;;;17.32;39.62;99790.25;10147799;29;20048;-82
2023/04/21 18:33:17;;;;;;;6.55;4.00;;;;;;;17.27;39.98;99785.34;10156050;29;20048;-80
2023/04/21 18:38:21;;;;;;;6.60;4.13;;;;;;;17.02;40.27;99784.66;10143891;29;20128;-81
2023/04/21 18:43:24;;;;;;;8.88;4.05;;;;;;;16.96;40.27;99788.13;10153699;29;20048;-81
2023/04/21 18:48:27;;;;;;;12.85;4.50;;;;;;;16.87;40.63;99789.22;10144875;29;20683;-83
2023/04/21 18:53:31;;;;;;;6.30;4.00;;;;;;;16.84;40.76;99793.13;10149693;29;20048;-82
2023/04/21 18:58:34;;;;;;;6.70;4.28;;;;;;;16.64;41.20;99787.28;10165598;29;20062;-82
2023/04/21 19:03:37;;;;;;;7.15;4.50;;;;;;;16.57;41.33;99797.19;10159448;29;20064;-82
2023/04/21 19:08:41;;;;;;;7.93;4.63;;;;;;;16.55;41.47;99797.34;10161073;29;21180;-83
2023/04/21 19:13:46;;;;;;;10.15;4.20;;;;;;;16.49;41.43;99799.94;10148712;29;20048;-82
2023/04/21 19:18:51;;;;;;;8.68;4.10;;;;;;;16.41;41.62;99802.69;10141955;29;20063;-80
2023/04/21 19:23:55;;;;;;;7.32;4.43;;;;;;;16.31;42.05;99800.16;10137283;29;20526;-83
2023/04/21 19:28:59;;;;;;;9.27;4.50;;;;;;;16.31;42.11;99802.88;10151629;29;20044;-82
2023/04/21 19:34:02;;;;;;;11.63;4.28;;;;;;;16.22;42.07;99795.78;10157582;29;20048;-81
2023/04/21 19:39:08;;;;;;;9.63;4.60;;;;;;;16.08;42.05;99789.22;10149397;29;20404;-85
2023/04/21 19:44:11;;;;;;;8.32;4.88;;;;;;;16.06;42.08;99792.09;10139529;29;21208;-83
2023/04/21 19:49:13;;;;;;;12.35;4.20;;;;;;;16.00;42.56;99790.09;10155878;29;20051;-84
2023/04/21 19:54:18;;;;;;;8.77;4.60;;;;;;;15.89;42.59;99785.88;10130968;29;20045;-83
2023/04/21 19:59:21;;;;;;;13.48;4.32;;;;;;;15.89;42.96;99790.47;10159908;29;20146;-82
2023/04/21 20:04:24;;;;;;;9.73;5.20;;;;;;;15.84;42.91;99790.97;10155887;29;20051;-82
2023/04/21 20:09:28;;;;;;;8.38;4.80;;;;;;;15.67;43.18;99789.31;10156858;29;20055;-82
2023/04/21 20:14:31;;;;;;;7.47;4.45;;;;;;;15.67;43.03;99784.75;10156656;29;20048;-83
2023/04/21 20:19:34;;;;;;;13.20;4.50;;;;;;;15.61;43.26;99795.44;10163141;29;20047;-80
2023/04/21 20:24:40;;;;;;;7.15;4.10;;;;;;;15.58;43.62;99790.38;10190645;29;20048;-81
2023/04/21 20:29:43;;;;;;;9.38;4.90;;;;;;;15.50;43.63;99791.22;10173474;29;20265;-82
2023/04/21 20:34:46;;;;;;;7.65;4.32;;;;;;;15.39;44.00;99791.56;10152312;29;20135;-83
2023/04/21 20:39:51;;;;;;;8.68;4.13;;;;;;;15.40;43.81;99788.69;10169412;29;20178;-81
2023/04/21 20:44:54;;;;;;;12.35;4.85;;;;;;;15.32;44.05;99783.22;10160641;29;20139;-83
2023/04/21 20:49:57;;;;;;;6.00;4.05;;;;;;;15.23;44.11;99789.66;10155579;29;20052;-84
2023/04/21 20:55:02;;;;;;;9.13;4.25;;;;;;;15.16;44.50;99780.53;10156621;29;20052;-85
2023/04/21 21:00:06;;;;;;;8.60;4.40;;;;;;;15.05;44.89;99785.25;10155997;29;20059;-82
2023/04/21 21:05:09;;;;;;;15.23;4.82;;;;;;;15.01;44.79;99788.47;10135311;29;21249;-82
2023/04/21 21:16:18;;;;;;;10.07;5.07;;;;;;;14.03;47.78;99842.16;10150617;29;20404;-79
2023/04/21 21:21:21;;;;;;;12.88;6.35;;;;;;;14.51;46.38;99811.03;10156801;29;20040;-76
2023/04/21 21:26:23;;;;;;;11.02;6.32;;;;;;;14.83;45.52;99792.16;10155954;29;20046;-77
2023/04/21 21:31:28;;;;;;;9.38;4.50;;;;;;;14.75;45.52;99800.25;10205506;23;20115;-79
2023/04/21 21:36:32;;;;;;;11.20;5.40;;;;;;;14.95;44.92;99805.38;10198937;29;20050;-78
2023/04/21 21:41:35;;;;;;;13.73;5.47;;;;;;;14.93;44.79;99800.13;10189741;29;20052;-79
2023/04/21 21:46:39;;;;;;;9.32;5.05;;;;;;;14.86;45.07;99784.72;10155800;29;20084;-77
2023/04/21 21:51:43;;;;;;;12.98;4.63;;;;;;;14.74;45.48;99786.91;10162981;29;20052;-79
2023/04/21 21:56:46;;;;;;;6.57;4.22;;;;;;;14.52;46.17;99788.38;10161312;29;20044;-78
2023/04/21 22:01:50;;;;;;;8.95;4.80;;;;;;;14.42;46.45;99783.09;10150662;29;20048;-78
2023/04/21 22:06:53;;;;;;;9.43;4.70;;;;;;;14.33;46.72;99776.78;10169366;29;20048;-78
2023/04/21 22:11:56;;;;;;;7.43;4.70;;;;;;;14.34;46.78;99802.81;10150551;29;20044;-78
2023/04/21 22:17:01;;;;;;;7.65;5.10;;;;;;;13.04;49.88;99848.59;10170573;29;20079;-78
2023/04/21 22:22:04;;;;;;;6.93;3.65;;;;;;;13.90;47.02;99837.19;10162167;29;20060;-78
2023/04/21 22:27:07;;;;;;;7.82;4.07;;;;;;;14.82;44.92;99809.41;10147502;29;20044;-78
2023/04/21 22:32:11;;;;;;;5.80;3.95;;;;;;;14.90;44.85;99803.16;10158779;29;20135;-78
2023/04/21 22:37:14;;;;;;;8.90;5.03;;;;;;;14.69;45.40;99781.16;10153547;29;20141;-77
2023/04/21 22:42:17;;;;;;;8.35;4.53;;;;;;;14.46;46.24;99791.75;10156356;29;20158;-78
2023/04/21 22:47:21;;;;;;;8.05;4.22;;;;;;;14.42;46.24;99798.47;10159472;29;20115;-80
2023/04/21 22:52:25;;;;;;;6.38;4.22;;;;;;;14.31;46.83;99796.88;10154260;29;20607;-78
2023/04/21 22:57:28;;;;;;;5.72;4.90;;;;;;;14.16;47.09;99789.41;10177317;29;20059;-76
2023/04/21 23:02:32;;;;;;;5.75;4.32;;;;;;;14.09;46.99;99779.41;10179206;29;20547;-79
2023/04/21 23:07:36;;;;;;;5.75;4.00;;;;;;;13.98;47.48;99783.22;10158593;29;20057;-78
2023/04/21 23:12:39;;;;;;;5.60;4.38;;;;;;;14.00;47.36;99785.78;10155218;29;20058;-78
2023/04/21 23:17:44;;;;;;;6.80;4.18;;;;;;;13.93;47.50;99780.16;10169764;29;20051;-78